createdAt,value
2023-01-22T00:00:05.968Z,103588.50
2023-01-22T00:02:35.789Z,103581.47
2023-01-22T00:05:02.553Z,103579.66
2023-01-22T00:07:29.107Z,103577.06
2023-01-22T00:09:55.647Z,103577.00
2023-01-22T00:12:22.156Z,103569.94
2023-01-22T00:14:49.680Z,103576.09
2023-01-22T00:17:16.329Z,103576.09
2023-01-22T00:19:43.440Z,103581.34
2023-01-22T00:22:11.456Z,103581.34
2023-01-22T00:24:39.854Z,103564.44
2023-01-22T00:27:06.623Z,103562.63
2023-01-22T00:29:33.160Z,103558.13
2023-01-22T00:31:59.775Z,103561.72
2023-01-22T00:34:26.344Z,103561.66
2023-01-22T00:36:55.131Z,103554.53
2023-01-22T00:39:21.721Z,103569.66
2023-01-22T00:41:49.771Z,103558.91
2023-01-22T00:44:16.560Z,103560.72
2023-01-22T00:46:43.237Z,103557.13
2023-01-22T00:49:09.829Z,103556.25
2023-01-22T00:51:37.041Z,103553.59
2023-01-22T00:54:03.598Z,103555.38
2023-01-22T00:56:30.114Z,103558.91
2023-01-22T00:58:58.559Z,103555.38
2023-01-22T01:01:25.215Z,103554.53
2023-01-22T01:03:51.723Z,103554.53
2023-01-22T01:06:21.752Z,103551.00
2023-01-22T01:08:48.732Z,103546.53
2023-01-22T01:11:23.056Z,103549.19
2023-01-22T01:13:51.287Z,103551.84
2023-01-22T01:16:21.047Z,103549.19
2023-01-22T01:18:48.280Z,103545.59
2023-01-22T01:21:15.369Z,103538.47
2023-01-22T01:23:42.753Z,103535.81
2023-01-22T01:26:12.295Z,103539.28
2023-01-22T01:28:41.432Z,103534.81
2023-01-22T01:31:11.554Z,103524.16
2023-01-22T01:33:38.276Z,103526.75
2023-01-22T01:36:47.194Z,103525.91
2023-01-22T01:39:13.157Z,103516.94
2023-01-22T01:41:39.709Z,103518.72
2023-01-22T01:44:17.504Z,103510.72
2023-01-22T01:46:51.550Z,103510.72
2023-01-22T01:49:44.430Z,103500.13
2023-01-22T01:52:13.019Z,103502.75
2023-01-22T01:54:42.821Z,103505.44
2023-01-22T01:57:14.482Z,103509.91
2023-01-22T01:59:42.961Z,103509.03
2023-01-22T02:02:09.517Z,103506.38
2023-01-22T02:04:36.116Z,103516.19
2023-01-22T02:07:05.266Z,103507.31
2023-01-22T02:09:32.348Z,103501.97
2023-01-22T02:11:58.866Z,103504.72
2023-01-22T02:14:33.161Z,103494.06
2023-01-22T02:17:08.725Z,103495.84
2023-01-22T02:19:35.407Z,103498.47
2023-01-22T02:22:01.937Z,103500.25
2023-01-22T02:24:31.468Z,103498.47
2023-01-22T02:26:58.011Z,103500.25
2023-01-22T02:29:26.909Z,103492.19
2023-01-22T02:31:53.509Z,103500.19
2023-01-22T02:34:24.354Z,103502.78
2023-01-22T02:36:51.576Z,103497.41
2023-01-22T02:39:18.208Z,103490.34
2023-01-22T02:41:45.326Z,103498.28
2023-01-22T02:44:11.853Z,103490.28
2023-01-22T02:46:38.825Z,103487.63
2023-01-22T02:49:05.339Z,103486.69
2023-01-22T02:51:32.097Z,103479.53
2023-01-22T02:53:59.021Z,103484.00
2023-01-22T02:56:25.587Z,103482.22
2023-01-22T02:58:52.165Z,103479.53
2023-01-22T03:01:24.313Z,103469.81
2023-01-22T03:03:53.357Z,103471.63
2023-01-22T03:06:21.900Z,103476.94
2023-01-22T03:08:50.236Z,103474.34
2023-01-22T03:11:16.757Z,103481.41
2023-01-22T03:14:01.846Z,103475.22
2023-01-22T03:16:46.703Z,103473.44
2023-01-22T03:19:32.064Z,103478.78
2023-01-22T03:21:58.565Z,103469.94
2023-01-22T03:24:25.106Z,103469.94
2023-01-22T03:26:51.636Z,103469.94
2023-01-22T03:29:18.195Z,103460.13
2023-01-22T03:31:48.344Z,103464.56
2023-01-22T03:34:20.419Z,103461.91
2023-01-22T03:36:47.192Z,103455.72
2023-01-22T03:39:13.715Z,103456.56
2023-01-22T03:41:40.684Z,103456.56
2023-01-22T03:44:11.615Z,103454.78
2023-01-22T03:46:40.254Z,103454.78
2023-01-22T03:49:07.882Z,103445.91
2023-01-22T03:51:35.227Z,103448.50
2023-01-22T03:54:01.769Z,103452.16
2023-01-22T03:56:28.677Z,103451.25
2023-01-22T03:58:56.253Z,103452.16
2023-01-22T04:01:25.302Z,103454.81
2023-01-22T04:03:52.722Z,103458.41
2023-01-22T04:06:20.724Z,103456.69
2023-01-22T04:08:49.640Z,103452.28
2023-01-22T04:11:16.325Z,103453.16
2023-01-22T04:13:44.486Z,103449.63
2023-01-22T04:16:12.652Z,103455.81
2023-01-22T04:18:39.775Z,103453.19
2023-01-22T04:21:06.318Z,103451.44
2023-01-22T04:23:33.006Z,103454.13
2023-01-22T04:25:59.577Z,103452.34
2023-01-22T04:28:26.137Z,103461.19
2023-01-22T04:30:54.880Z,103460.31
2023-01-22T04:33:21.762Z,103457.63
2023-01-22T04:35:53.217Z,103455.84
2023-01-22T04:38:19.852Z,103461.19
2023-01-22T04:40:46.603Z,103459.41
2023-01-22T04:43:13.088Z,103462.94
2023-01-22T04:45:39.672Z,103462.09
2023-01-22T04:48:08.408Z,103456.75
2023-01-22T04:50:35.464Z,103457.63
2023-01-22T04:53:02.271Z,103457.63
2023-01-22T04:55:29.444Z,103457.63
2023-01-22T04:57:57.511Z,103455.84
2023-01-22T05:00:25.234Z,103458.47
2023-01-22T05:02:56.541Z,103457.66
2023-01-22T05:05:23.432Z,103454.13
2023-01-22T05:07:50.286Z,103456.75
2023-01-22T05:10:17.325Z,103455.84
2023-01-22T05:12:44.029Z,103460.31
2023-01-22T05:15:23.136Z,103450.53
2023-01-22T05:17:50.442Z,103455.84
2023-01-22T05:20:17.433Z,103453.19
2023-01-22T05:22:44.385Z,103455.94
2023-01-22T05:25:11.116Z,103458.59
2023-01-22T05:27:37.613Z,103462.13
2023-01-22T05:30:05.932Z,103465.66
2023-01-22T05:32:32.468Z,103463.00
2023-01-22T05:34:58.949Z,103465.66
2023-01-22T05:37:25.504Z,103470.06
2023-01-22T05:39:52.104Z,103466.53
2023-01-22T05:42:18.651Z,103461.19
2023-01-22T05:44:45.206Z,103463.81
2023-01-22T05:47:13.568Z,103466.47
2023-01-22T05:49:40.326Z,103462.00
2023-01-22T05:52:10.495Z,103475.34
2023-01-22T05:54:38.830Z,103465.53
2023-01-22T05:57:05.920Z,103468.22
2023-01-22T05:59:32.635Z,103465.53
2023-01-22T06:01:59.255Z,103471.81
2023-01-22T06:04:25.848Z,103474.47
2023-01-22T06:06:52.325Z,103488.66
2023-01-22T06:09:18.859Z,103481.59
2023-01-22T06:11:45.376Z,103475.41
2023-01-22T06:14:11.924Z,103481.63
2023-01-22T06:16:38.483Z,103471.91
2023-01-22T06:19:05.057Z,103483.44
2023-01-22T06:21:31.568Z,103485.25
2023-01-22T06:23:58.109Z,103472.84
2023-01-22T06:26:24.626Z,103487.97
2023-01-22T06:28:51.274Z,103487.13
2023-01-22T06:31:17.870Z,103480.84
2023-01-22T06:33:44.560Z,103490.56
2023-01-22T06:36:11.103Z,103487.97
2023-01-22T06:38:38.591Z,103486.97
2023-01-22T06:41:05.147Z,103488.78
2023-01-22T06:43:31.827Z,103488.78
2023-01-22T06:45:58.375Z,103490.50
2023-01-22T06:48:24.936Z,103488.72
2023-01-22T06:50:51.539Z,103490.47
2023-01-22T06:53:18.081Z,103478.06
2023-01-22T06:55:44.539Z,103477.13
2023-01-22T06:58:11.047Z,103480.66
2023-01-22T07:00:37.809Z,103478.94
2023-01-22T07:03:08.066Z,103476.28
2023-01-22T07:05:35.324Z,103478.94
2023-01-22T07:08:02.252Z,103480.75
2023-01-22T07:10:28.992Z,103483.41
2023-01-22T07:12:56.594Z,103487.84
2023-01-22T07:15:23.116Z,103491.41
2023-01-22T07:17:54.810Z,103485.25
2023-01-22T07:20:23.038Z,103488.84
2023-01-22T07:22:50.373Z,103489.72
2023-01-22T07:25:16.936Z,103491.50
2023-01-22T07:27:43.504Z,103487.13
2023-01-22T07:30:10.751Z,103495.09
2023-01-22T07:32:37.588Z,103495.97
2023-01-22T07:35:04.323Z,103489.81
2023-01-22T07:37:30.790Z,103501.34
2023-01-22T07:39:57.289Z,103503.09
2023-01-22T07:42:23.785Z,103498.69
2023-01-22T07:44:50.338Z,103496.00
2023-01-22T07:47:16.851Z,103499.53
2023-01-22T07:49:43.341Z,103501.31
2023-01-22T07:52:09.906Z,103510.16
2023-01-22T07:54:36.689Z,103509.28
2023-01-22T07:57:04.259Z,103517.22
2023-01-22T07:59:30.836Z,103521.63
2023-01-22T08:01:57.408Z,103526.94
2023-01-22T08:04:24.507Z,103525.22
2023-01-22T08:06:51.971Z,103520.75
2023-01-22T08:09:24.794Z,103517.22
2023-01-22T08:11:52.410Z,103527.00
2023-01-22T08:14:19.771Z,103537.59
2023-01-22T08:16:46.784Z,103537.59
2023-01-22T08:19:13.819Z,103537.59
2023-01-22T08:21:40.370Z,103540.34
2023-01-22T08:24:08.225Z,103543.00
2023-01-22T08:26:35.021Z,103539.47
2023-01-22T08:29:05.303Z,103548.34
2023-01-22T08:31:33.628Z,103543.88
2023-01-22T08:34:00.568Z,103541.19
2023-01-22T08:36:27.443Z,103529.59
2023-01-22T08:38:54.371Z,103533.22
2023-01-22T08:41:21.476Z,103540.34
2023-01-22T08:43:48.345Z,103538.59
2023-01-22T08:46:14.886Z,103535.88
2023-01-22T08:48:43.323Z,103533.22
2023-01-22T08:51:11.535Z,103543.00
2023-01-22T08:53:38.198Z,103534.94
2023-01-22T08:56:05.116Z,103534.94
2023-01-22T08:58:31.785Z,103542.94
2023-01-22T09:00:58.354Z,103541.13
2023-01-22T09:03:24.989Z,103542.91
2023-01-22T09:05:51.683Z,103548.22
2023-01-22T09:08:18.236Z,103555.34
2023-01-22T09:10:44.775Z,103556.22
2023-01-22T09:13:11.534Z,103553.56
2023-01-22T09:15:40.121Z,103552.72
2023-01-22T09:18:06.942Z,103563.34
2023-01-22T09:20:33.859Z,103557.13
2023-01-22T09:23:00.355Z,103557.13
2023-01-22T09:25:26.928Z,103564.25
2023-01-22T09:28:05.012Z,103558.91
2023-01-22T09:30:32.233Z,103569.53
2023-01-22T09:32:59.210Z,103558.00
2023-01-22T09:35:27.383Z,103553.59
2023-01-22T09:37:54.800Z,103558.00
2023-01-22T09:40:32.541Z,103550.94
2023-01-22T09:43:07.813Z,103557.13
2023-01-22T09:45:38.593Z,103553.56
2023-01-22T09:48:11.502Z,103563.34
2023-01-22T09:50:40.161Z,103558.88
2023-01-22T09:53:12.445Z,103565.06
2023-01-22T09:55:44.638Z,103554.41
2023-01-22T09:58:16.230Z,103546.34
2023-01-22T10:00:50.925Z,103556.16
2023-01-22T10:03:31.476Z,103557.88
2023-01-22T10:06:09.021Z,103558.69
2023-01-22T10:09:01.571Z,103557.75
2023-01-22T10:11:28.304Z,103550.59
2023-01-22T10:13:58.647Z,103554.91
2023-01-22T10:16:25.568Z,103553.09
2023-01-22T10:18:58.822Z,103568.97
2023-01-22T10:21:31.465Z,103561.75
2023-01-22T10:23:58.814Z,103568.78
2023-01-22T10:26:33.273Z,103573.19
2023-01-22T10:29:05.736Z,103562.44
2023-01-22T10:31:38.328Z,103560.63
2023-01-22T10:34:13.062Z,103557.94
2023-01-22T10:36:39.819Z,103564.06
2023-01-22T10:39:14.841Z,103570.22
2023-01-22T10:41:42.571Z,103567.38
2023-01-22T10:44:29.354Z,103562.78
2023-01-22T10:47:06.654Z,103561.75
2023-01-22T10:49:33.255Z,103558.03
2023-01-22T10:52:06.947Z,103562.31
2023-01-22T10:54:40.437Z,103559.53
2023-01-22T10:57:18.990Z,103554.00
2023-01-22T10:59:52.314Z,103548.59
2023-01-22T11:02:23.562Z,103553.72
2023-01-22T11:04:51.212Z,103551.94
2023-01-22T11:07:38.283Z,103549.22
2023-01-22T11:10:31.224Z,103553.69
2023-01-22T11:13:07.404Z,103535.81
2023-01-22T11:15:56.100Z,103543.75
2023-01-22T11:18:49.229Z,103540.09
2023-01-22T11:21:19.487Z,103528.44
2023-01-22T11:23:59.570Z,103524.81
2023-01-22T11:26:48.855Z,103529.16
2023-01-22T11:29:34.120Z,103524.63
2023-01-22T11:32:22.562Z,103521.03
2023-01-22T11:35:04.963Z,103514.81
2023-01-22T11:38:03.842Z,103517.47
2023-01-22T11:40:39.130Z,103520.97
2023-01-22T11:43:30.478Z,103512.16
2023-01-22T11:46:14.019Z,103514.03
2023-01-22T11:48:58.670Z,103517.63
2023-01-22T11:51:36.300Z,103518.50
2023-01-22T11:54:12.288Z,103519.41
2023-01-22T11:57:08.846Z,103515.13
2023-01-22T12:00:00.006Z,103505.34
2023-01-22T12:02:45.530Z,103501.78
2023-01-22T12:05:17.028Z,103500.03
2023-01-22T12:07:46.319Z,103493.88
2023-01-22T12:10:43.813Z,103486.81
2023-01-22T12:13:43.408Z,103483.28
2023-01-22T12:16:50.996Z,103487.75
2023-01-22T12:19:48.615Z,103483.31
2023-01-22T12:22:43.095Z,103487.78
2023-01-22T12:25:25.055Z,103494.94
2023-01-22T12:28:00.070Z,103495.88
2023-01-22T12:30:43.663Z,103491.47
2023-01-22T12:33:13.998Z,103495.00
2023-01-22T12:35:42.070Z,103499.47
2023-01-22T12:38:12.507Z,103492.38
2023-01-22T12:41:02.145Z,103499.59
2023-01-22T12:44:21.619Z,103501.41
2023-01-22T12:46:56.679Z,103497.78
2023-01-22T12:49:23.232Z,103488.91
2023-01-22T12:51:52.794Z,103490.72
2023-01-22T12:54:28.507Z,103486.28
2023-01-22T12:57:09.048Z,103480.97
2023-01-22T12:59:35.486Z,103486.25
2023-01-22T13:02:20.981Z,103494.25
2023-01-22T13:04:47.817Z,103495.13
2023-01-22T13:07:29.324Z,103496.97
2023-01-22T13:10:29.411Z,103491.72
2023-01-22T13:13:00.858Z,103495.97
2023-01-22T13:15:32.103Z,103496.94
2023-01-22T13:18:08.357Z,103495.13
2023-01-22T13:20:45.601Z,103483.59
2023-01-22T13:23:13.859Z,103483.59
2023-01-22T13:25:41.132Z,103479.19
2023-01-22T13:28:10.605Z,103479.25
2023-01-22T13:30:37.449Z,103489.97
2023-01-22T13:33:15.289Z,103494.50
2023-01-22T13:35:46.568Z,103483.81
2023-01-22T13:38:25.134Z,103490.19
2023-01-22T13:41:02.264Z,103494.69
2023-01-22T13:43:29.492Z,103497.34
2023-01-22T13:45:57.483Z,103488.50
2023-01-22T13:48:26.024Z,103494.75
2023-01-22T13:50:56.221Z,103493.03
2023-01-22T13:53:30.256Z,103495.75
2023-01-22T13:55:58.145Z,103507.28
2023-01-22T13:58:46.653Z,103501.16
2023-01-22T14:01:28.092Z,103495.88
2023-01-22T14:04:04.937Z,103498.53
2023-01-22T14:06:43.908Z,103504.81
2023-01-22T14:09:10.622Z,103501.19
2023-01-22T14:11:39.125Z,103511.00
2023-01-22T14:14:16.180Z,103511.06
2023-01-22T14:16:42.836Z,103511.94
2023-01-22T14:19:09.389Z,103511.06
2023-01-22T14:21:37.368Z,103511.06
2023-01-22T14:24:04.598Z,103511.13
2023-01-22T14:26:31.271Z,103512.88
2023-01-22T14:28:57.810Z,103513.00
2023-01-22T14:31:24.442Z,103519.19
2023-01-22T14:33:51.006Z,103529.00
2023-01-22T14:36:18.517Z,103523.66
2023-01-22T14:38:45.057Z,103521.94
2023-01-22T14:41:11.585Z,103528.13
2023-01-22T14:43:38.056Z,103529.06
2023-01-22T14:46:08.021Z,103519.31
2023-01-22T14:48:34.676Z,103523.78
2023-01-22T14:51:06.976Z,103522.97
2023-01-22T14:53:33.523Z,103523.84
2023-01-22T14:56:00.053Z,103528.31
2023-01-22T14:58:26.578Z,103530.16
2023-01-22T15:00:53.963Z,103541.69
2023-01-22T15:03:20.585Z,103538.16
2023-01-22T15:05:51.017Z,103539.09
2023-01-22T15:08:17.652Z,103540.88
2023-01-22T15:10:45.139Z,103536.50
2023-01-22T15:13:11.697Z,103549.81
2023-01-22T15:15:38.338Z,103540.03
2023-01-22T15:18:04.883Z,103540.06
2023-01-22T15:20:31.440Z,103540.06
2023-01-22T15:22:58.087Z,103539.19
2023-01-22T15:25:24.628Z,103542.81
2023-01-22T15:27:51.169Z,103546.34
2023-01-22T15:30:18.398Z,103554.34
2023-01-22T15:32:45.211Z,103545.47
2023-01-22T15:35:11.890Z,103546.34
2023-01-22T15:37:38.671Z,103545.53
2023-01-22T15:40:05.728Z,103544.66
2023-01-22T15:42:35.499Z,103548.25
2023-01-22T15:45:04.093Z,103544.66
2023-01-22T15:47:30.618Z,103543.78
2023-01-22T15:49:57.169Z,103536.72
2023-01-22T15:52:23.744Z,103543.00
2023-01-22T15:54:53.519Z,103547.47
2023-01-22T15:57:20.188Z,103539.47
2023-01-22T15:59:46.743Z,103543.94
2023-01-22T16:02:13.333Z,103544.78
2023-01-22T16:04:39.963Z,103543.94
2023-01-22T16:07:06.481Z,103543.03
2023-01-22T16:09:34.290Z,103554.59
2023-01-22T16:12:00.872Z,103552.78
2023-01-22T16:14:29.115Z,103553.66
2023-01-22T16:16:55.676Z,103547.47
2023-01-22T16:19:22.253Z,103553.66
2023-01-22T16:21:48.787Z,103554.59
2023-01-22T16:24:15.683Z,103555.44
2023-01-22T16:26:42.224Z,103562.59
2023-01-22T16:29:08.942Z,103556.34
2023-01-22T16:31:36.173Z,103562.63
2023-01-22T16:34:20.594Z,103567.97
2023-01-22T16:36:48.740Z,103561.69
2023-01-22T16:39:24.938Z,103561.75
2023-01-22T16:41:52.655Z,103560.81
2023-01-22T16:44:24.496Z,103568.78
2023-01-22T16:46:54.216Z,103556.31
2023-01-22T16:49:26.330Z,103562.44
2023-01-22T16:51:55.745Z,103560.63
2023-01-22T16:54:27.863Z,103568.59
2023-01-22T16:56:56.235Z,103565.88
2023-01-22T16:59:23.097Z,103574.69
2023-01-22T17:01:49.962Z,103577.28
2023-01-22T17:04:16.737Z,103571.94
2023-01-22T17:06:46.902Z,103579.00
2023-01-22T17:09:17.147Z,103569.22
2023-01-22T17:11:46.281Z,103570.97
2023-01-22T17:14:15.241Z,103576.22
2023-01-22T17:16:41.791Z,103580.63
2023-01-22T17:19:08.312Z,103584.16
2023-01-22T17:21:34.866Z,103593.91
2023-01-22T17:24:01.568Z,103590.38
2023-01-22T17:26:28.211Z,103585.91
2023-01-22T17:28:55.099Z,103587.72
2023-01-22T17:31:22.473Z,103577.91
2023-01-22T17:33:49.714Z,103589.50
2023-01-22T17:36:19.074Z,103593.91
2023-01-22T17:38:46.029Z,103585.06
2023-01-22T17:41:16.010Z,103589.50
2023-01-22T17:43:44.180Z,103586.81
2023-01-22T17:46:14.045Z,103587.72
2023-01-22T17:48:40.701Z,103589.50
2023-01-22T17:51:13.154Z,103581.56
2023-01-22T17:53:42.532Z,103592.16
2023-01-22T17:56:13.246Z,103590.44
2023-01-22T17:58:52.483Z,103600.22
2023-01-22T18:01:21.276Z,103593.91
2023-01-22T18:03:48.105Z,103602.78
2023-01-22T18:06:15.220Z,103596.59
2023-01-22T18:08:42.667Z,103595.72
2023-01-22T18:11:15.446Z,103593.91
2023-01-22T18:13:42.700Z,103594.78
2023-01-22T18:16:12.138Z,103600.00
2023-01-22T18:18:38.848Z,103606.19
2023-01-22T18:21:11.717Z,103601.78
2023-01-22T18:23:38.214Z,103602.66
2023-01-22T18:26:06.812Z,103607.94
2023-01-22T18:28:34.641Z,103611.53
2023-01-22T18:31:07.205Z,103606.19
2023-01-22T18:33:37.213Z,103603.53
2023-01-22T18:36:10.966Z,103610.66
2023-01-22T18:38:38.327Z,103615.00
2023-01-22T18:41:10.601Z,103623.94
2023-01-22T18:43:38.427Z,103618.59
2023-01-22T18:46:14.443Z,103617.78
2023-01-22T18:48:42.328Z,103618.59
2023-01-22T18:51:11.098Z,103618.59
2023-01-22T18:53:37.808Z,103624.00
2023-01-22T18:56:06.294Z,103623.06
2023-01-22T18:58:36.322Z,103618.66
2023-01-22T19:01:29.719Z,103615.09
2023-01-22T19:03:58.831Z,103615.94
2023-01-22T19:06:31.524Z,103617.78
2023-01-22T19:09:06.079Z,103611.53
2023-01-22T19:11:37.267Z,103610.66
2023-01-22T19:14:06.386Z,103607.06
2023-01-22T19:16:33.255Z,103608.00
2023-01-22T19:19:07.805Z,103608.88
2023-01-22T19:21:34.306Z,103599.09
2023-01-22T19:24:01.883Z,103603.53
2023-01-22T19:26:31.396Z,103603.56
2023-01-22T19:29:05.227Z,103609.78
2023-01-22T19:31:32.319Z,103610.78
2023-01-22T19:34:00.167Z,103613.25
2023-01-22T19:36:30.215Z,103605.38
2023-01-22T19:38:58.580Z,103612.44
2023-01-22T19:41:26.664Z,103620.50
2023-01-22T19:43:54.563Z,103619.66
2023-01-22T19:46:21.138Z,103622.31
2023-01-22T19:48:47.711Z,103618.78
2023-01-22T19:51:17.134Z,103621.44
2023-01-22T19:53:44.315Z,103614.38
2023-01-22T19:56:27.184Z,103623.28
2023-01-22T19:58:57.768Z,103619.66
2023-01-22T20:01:24.396Z,103620.50
2023-01-22T20:03:51.305Z,103613.44
2023-01-22T20:06:18.177Z,103622.31
2023-01-22T20:08:45.910Z,103624.13
2023-01-22T20:11:13.574Z,103630.31
2023-01-22T20:13:41.645Z,103629.44
2023-01-22T20:16:17.957Z,103633.06
2023-01-22T20:18:44.950Z,103631.25
2023-01-22T20:21:12.015Z,103635.72
2023-01-22T20:23:38.596Z,103629.47
2023-01-22T20:26:09.765Z,103638.38
2023-01-22T20:28:37.144Z,103634.81
2023-01-22T20:31:07.735Z,103639.28
2023-01-22T20:33:34.281Z,103636.63
2023-01-22T20:36:05.034Z,103633.09
2023-01-22T20:38:31.603Z,103632.16
2023-01-22T20:41:04.566Z,103630.41
2023-01-22T20:43:32.393Z,103634.81
2023-01-22T20:46:15.115Z,103640.16
2023-01-22T20:48:42.463Z,103637.44
2023-01-22T20:51:18.133Z,103638.31
2023-01-22T20:53:46.636Z,103639.19
2023-01-22T20:56:15.745Z,103642.72
2023-01-22T20:58:42.637Z,103645.38
2023-01-22T21:01:14.600Z,103656.00
2023-01-22T21:03:42.688Z,103661.34
2023-01-22T21:06:13.579Z,103658.66
2023-01-22T21:08:40.986Z,103657.78
2023-01-22T21:11:11.803Z,103654.25
2023-01-22T21:13:38.804Z,103648.91
2023-01-22T21:16:11.614Z,103650.72
2023-01-22T21:18:41.436Z,103654.25
2023-01-22T21:21:09.227Z,103651.66
2023-01-22T21:23:37.203Z,103651.66
2023-01-22T21:26:09.535Z,103652.50
2023-01-22T21:28:37.346Z,103653.38
2023-01-22T21:31:09.419Z,103654.31
2023-01-22T21:33:36.096Z,103657.84
2023-01-22T21:36:04.287Z,103659.66
2023-01-22T21:38:30.841Z,103655.25
2023-01-22T21:41:12.836Z,103660.63
2023-01-22T21:43:59.789Z,103663.25
2023-01-22T21:46:28.093Z,103677.44
2023-01-22T21:48:58.327Z,103673.91
2023-01-22T21:51:26.041Z,103669.44
2023-01-22T21:53:54.884Z,103671.25
2023-01-22T21:56:21.581Z,103673.91
2023-01-22T21:58:48.199Z,103677.44
2023-01-22T22:01:17.794Z,103677.47
2023-01-22T22:03:44.486Z,103676.56
2023-01-22T22:06:13.250Z,103682.78
2023-01-22T22:08:43.138Z,103684.56
2023-01-22T22:11:10.351Z,103686.31
2023-01-22T22:13:36.969Z,103690.78
2023-01-22T22:16:05.480Z,103694.31
2023-01-22T22:18:32.362Z,103689.84
2023-01-22T22:21:04.840Z,103693.44
2023-01-22T22:23:31.888Z,103695.19
2023-01-22T22:25:59.181Z,103688.97
2023-01-22T22:28:25.731Z,103696.97
2023-01-22T22:30:52.859Z,103684.50
2023-01-22T22:33:19.524Z,103695.19
2023-01-22T22:35:47.133Z,103694.25
2023-01-22T22:38:14.664Z,103689.78
2023-01-22T22:40:41.688Z,103700.44
2023-01-22T22:43:09.236Z,103695.09
2023-01-22T22:45:37.721Z,103697.72
2023-01-22T22:48:04.968Z,103699.53
2023-01-22T22:50:31.537Z,103699.47
2023-01-22T22:52:58.097Z,103699.47
2023-01-22T22:55:26.593Z,103702.13
2023-01-22T22:57:53.176Z,103709.25
2023-01-22T23:00:20.110Z,103703.94
2023-01-22T23:02:46.771Z,103702.13
2023-01-22T23:05:13.314Z,103701.25
2023-01-22T23:07:39.850Z,103695.94
2023-01-22T23:10:07.760Z,103703.94
2023-01-22T23:12:34.333Z,103709.25
2023-01-22T23:15:00.838Z,103697.72
2023-01-22T23:17:27.333Z,103705.72
2023-01-22T23:19:53.872Z,103699.53
2023-01-22T23:22:20.374Z,103705.72
2023-01-22T23:24:47.253Z,103700.41
2023-01-22T23:27:13.907Z,103707.53
2023-01-22T23:29:40.426Z,103715.53
2023-01-22T23:32:06.916Z,103706.66
2023-01-22T23:34:33.481Z,103706.66
2023-01-22T23:36:59.965Z,103711.94
2023-01-22T23:39:26.469Z,103714.59
2023-01-22T23:41:52.996Z,103715.47
2023-01-22T23:44:19.486Z,103719.88
2023-01-22T23:46:46.141Z,103722.53
2023-01-22T23:49:12.804Z,103719.81
2023-01-22T23:51:42.065Z,103714.50
2023-01-22T23:54:09.239Z,103716.22
2023-01-22T23:56:36.500Z,103720.63
2023-01-22T23:59:03.829Z,103728.63
